sensor_id;sensor_type;location;lat;lon;timestamp;P1;durP1;ratioP1;P2;durP2;ratioP2
12892;SDS011;6514;48.606;9.222;2022-08-21T00:00:25;2.60;;;2.10;;
12892;SDS011;6514;48.606;9.222;2022-08-21T00:02:58;2.53;;;2.20;;
12892;SDS011;6514;48.606;9.222;2022-08-21T00:05:27;2.40;;;2.20;;
12892;SDS011;6514;48.606;9.222;2022-08-21T00:07:55;3.10;;;2.03;;
12892;SDS011;6514;48.606;9.222;2022-08-21T00:10:23;6.43;;;2.30;;
12892;SDS011;6514;48.606;9.222;2022-08-21T00:12:50;2.70;;;2.23;;
12892;SDS011;6514;48.606;9.222;2022-08-21T00:15:19;2.53;;;2.17;;
12892;SDS011;6514;48.606;9.222;2022-08-21T00:17:48;2.37;;;2.17;;
12892;SDS011;6514;48.606;9.222;2022-08-21T00:20:17;2.87;;;2.43;;
12892;SDS011;6514;48.606;9.222;2022-08-21T00:22:44;2.73;;;2.20;;
12892;SDS011;6514;48.606;9.222;2022-08-21T00:25:12;3.50;;;2.43;;
12892;SDS011;6514;48.606;9.222;2022-08-21T00:27:40;3.37;;;2.50;;
12892;SDS011;6514;48.606;9.222;2022-08-21T00:30:09;3.30;;;2.50;;
12892;SDS011;6514;48.606;9.222;2022-08-21T00:32:38;3.00;;;2.10;;
12892;SDS011;6514;48.606;9.222;2022-08-21T00:35:08;4.57;;;2.60;;
12892;SDS011;6514;48.606;9.222;2022-08-21T00:37:38;2.53;;;2.33;;
12892;SDS011;6514;48.606;9.222;2022-08-21T00:40:07;2.33;;;2.20;;
12892;SDS011;6514;48.606;9.222;2022-08-21T00:42:37;3.40;;;2.37;;
12892;SDS011;6514;48.606;9.222;2022-08-21T00:45:05;2.33;;;2.17;;
12892;SDS011;6514;48.606;9.222;2022-08-21T00:47:33;3.70;;;2.00;;
12892;SDS011;6514;48.606;9.222;2022-08-21T00:50:00;2.33;;;2.13;;
12892;SDS011;6514;48.606;9.222;2022-08-21T00:52:28;2.33;;;2.13;;
12892;SDS011;6514;48.606;9.222;2022-08-21T00:54:59;3.73;;;2.40;;
12892;SDS011;6514;48.606;9.222;2022-08-21T00:57:29;2.40;;;2.20;;
12892;SDS011;6514;48.606;9.222;2022-08-21T01:00:03;3.10;;;2.33;;
12892;SDS011;6514;48.606;9.222;2022-08-21T01:02:33;3.30;;;2.70;;
12892;SDS011;6514;48.606;9.222;2022-08-21T01:05:02;4.07;;;2.87;;
12892;SDS011;6514;48.606;9.222;2022-08-21T01:07:29;3.97;;;2.70;;
12892;SDS011;6514;48.606;9.222;2022-08-21T01:09:57;5.17;;;2.90;;
12892;SDS011;6514;48.606;9.222;2022-08-21T01:12:25;4.50;;;2.87;;
12892;SDS011;6514;48.606;9.222;2022-08-21T01:14:53;3.53;;;2.87;;
12892;SDS011;6514;48.606;9.222;2022-08-21T01:17:20;2.87;;;2.40;;
12892;SDS011;6514;48.606;9.222;2022-08-21T01:19:47;3.73;;;2.67;;
12892;SDS011;6514;48.606;9.222;2022-08-21T01:22:16;4.13;;;2.77;;
12892;SDS011;6514;48.606;9.222;2022-08-21T01:24:44;5.57;;;2.83;;
12892;SDS011;6514;48.606;9.222;2022-08-21T01:27:11;3.43;;;3.13;;
12892;SDS011;6514;48.606;9.222;2022-08-21T01:29:39;3.67;;;3.20;;
12892;SDS011;6514;48.606;9.222;2022-08-21T01:32:13;3.93;;;3.13;;
12892;SDS011;6514;48.606;9.222;2022-08-21T01:34:42;4.47;;;3.17;;
12892;SDS011;6514;48.606;9.222;2022-08-21T01:37:10;3.80;;;2.90;;
12892;SDS011;6514;48.606;9.222;2022-08-21T01:39:39;4.47;;;3.00;;
12892;SDS011;6514;48.606;9.222;2022-08-21T01:42:06;3.80;;;3.50;;
12892;SDS011;6514;48.606;9.222;2022-08-21T01:44:34;3.83;;;3.10;;
12892;SDS011;6514;48.606;9.222;2022-08-21T01:47:02;3.20;;;2.90;;
12892;SDS011;6514;48.606;9.222;2022-08-21T01:49:32;3.50;;;3.20;;
12892;SDS011;6514;48.606;9.222;2022-08-21T01:52:00;4.10;;;3.23;;
12892;SDS011;6514;48.606;9.222;2022-08-21T01:54:27;4.37;;;3.97;;
12892;SDS011;6514;48.606;9.222;2022-08-21T01:56:55;3.70;;;3.43;;
12892;SDS011;6514;48.606;9.222;2022-08-21T01:59:22;5.13;;;3.20;;
12892;SDS011;6514;48.606;9.222;2022-08-21T02:01:50;6.07;;;3.33;;
12892;SDS011;6514;48.606;9.222;2022-08-21T02:04:19;4.67;;;3.93;;
12892;SDS011;6514;48.606;9.222;2022-08-21T02:06:46;4.53;;;3.60;;
12892;SDS011;6514;48.606;9.222;2022-08-21T02:09:13;4.00;;;3.60;;
12892;SDS011;6514;48.606;9.222;2022-08-21T02:11:41;4.70;;;3.83;;
12892;SDS011;6514;48.606;9.222;2022-08-21T02:14:10;4.23;;;3.83;;
12892;SDS011;6514;48.606;9.222;2022-08-21T02:16:39;5.17;;;4.07;;
12892;SDS011;6514;48.606;9.222;2022-08-21T02:19:07;7.00;;;4.50;;
12892;SDS011;6514;48.606;9.222;2022-08-21T02:21:34;4.53;;;4.13;;
12892;SDS011;6514;48.606;9.222;2022-08-21T02:24:01;5.23;;;4.30;;
12892;SDS011;6514;48.606;9.222;2022-08-21T02:26:28;4.37;;;3.77;;
12892;SDS011;6514;48.606;9.222;2022-08-21T02:28:55;4.17;;;3.87;;
12892;SDS011;6514;48.606;9.222;2022-08-21T02:31:24;7.27;;;4.70;;
12892;SDS011;6514;48.606;9.222;2022-08-21T02:33:51;4.83;;;4.43;;
12892;SDS011;6514;48.606;9.222;2022-08-21T02:36:18;5.33;;;4.80;;
12892;SDS011;6514;48.606;9.222;2022-08-21T02:38:45;5.10;;;4.23;;
12892;SDS011;6514;48.606;9.222;2022-08-21T02:41:13;5.23;;;4.13;;
12892;SDS011;6514;48.606;9.222;2022-08-21T02:43:42;5.33;;;4.40;;
12892;SDS011;6514;48.606;9.222;2022-08-21T02:46:10;4.93;;;4.43;;
12892;SDS011;6514;48.606;9.222;2022-08-21T02:48:39;5.37;;;4.50;;
12892;SDS011;6514;48.606;9.222;2022-08-21T02:51:09;4.87;;;4.47;;
12892;SDS011;6514;48.606;9.222;2022-08-21T02:53:38;8.87;;;4.80;;
12892;SDS011;6514;48.606;9.222;2022-08-21T02:56:07;4.10;;;3.70;;
12892;SDS011;6514;48.606;9.222;2022-08-21T02:58:37;5.73;;;4.10;;
12892;SDS011;6514;48.606;9.222;2022-08-21T03:01:06;4.80;;;4.40;;
12892;SDS011;6514;48.606;9.222;2022-08-21T03:03:34;5.73;;;4.60;;
12892;SDS011;6514;48.606;9.222;2022-08-21T03:06:04;4.73;;;4.33;;
12892;SDS011;6514;48.606;9.222;2022-08-21T03:08:32;4.80;;;4.23;;
12892;SDS011;6514;48.606;9.222;2022-08-21T03:10:59;8.97;;;4.00;;
12892;SDS011;6514;48.606;9.222;2022-08-21T03:13:27;5.80;;;4.57;;
12892;SDS011;6514;48.606;9.222;2022-08-21T03:15:54;4.93;;;4.53;;
12892;SDS011;6514;48.606;9.222;2022-08-21T03:18:21;6.00;;;5.07;;
12892;SDS011;6514;48.606;9.222;2022-08-21T03:20:48;6.20;;;5.57;;
12892;SDS011;6514;48.606;9.222;2022-08-21T03:23:17;5.63;;;5.13;;
12892;SDS011;6514;48.606;9.222;2022-08-21T03:25:44;5.60;;;5.10;;
12892;SDS011;6514;48.606;9.222;2022-08-21T03:28:13;6.40;;;5.33;;
12892;SDS011;6514;48.606;9.222;2022-08-21T03:30:46;6.10;;;5.60;;
12892;SDS011;6514;48.606;9.222;2022-08-21T03:33:14;5.40;;;4.83;;
12892;SDS011;6514;48.606;9.222;2022-08-21T03:35:43;5.60;;;5.10;;
12892;SDS011;6514;48.606;9.222;2022-08-21T03:38:11;6.07;;;5.37;;
12892;SDS011;6514;48.606;9.222;2022-08-21T03:40:40;6.13;;;5.63;;
12892;SDS011;6514;48.606;9.222;2022-08-21T03:43:07;5.90;;;5.30;;
12892;SDS011;6514;48.606;9.222;2022-08-21T03:45:35;5.77;;;5.27;;
12892;SDS011;6514;48.606;9.222;2022-08-21T03:48:03;5.13;;;4.73;;
12892;SDS011;6514;48.606;9.222;2022-08-21T03:50:31;5.00;;;4.57;;
12892;SDS011;6514;48.606;9.222;2022-08-21T03:53:01;5.53;;;4.93;;
12892;SDS011;6514;48.606;9.222;2022-08-21T03:55:29;5.40;;;5.00;;
12892;SDS011;6514;48.606;9.222;2022-08-21T03:57:57;5.30;;;4.80;;
12892;SDS011;6514;48.606;9.222;2022-08-21T04:00:24;6.60;;;4.77;;
12892;SDS011;6514;48.606;9.222;2022-08-21T04:02:52;5.27;;;4.87;;
12892;SDS011;6514;48.606;9.222;2022-08-21T04:05:19;4.87;;;4.40;;
12892;SDS011;6514;48.606;9.222;2022-08-21T04:07:53;5.67;;;5.10;;
12892;SDS011;6514;48.606;9.222;2022-08-21T04:10:21;5.57;;;5.10;;
12892;SDS011;6514;48.606;9.222;2022-08-21T04:12:49;5.30;;;4.80;;
12892;SDS011;6514;48.606;9.222;2022-08-21T04:15:18;5.50;;;5.00;;
12892;SDS011;6514;48.606;9.222;2022-08-21T04:17:46;7.10;;;5.30;;
12892;SDS011;6514;48.606;9.222;2022-08-21T04:20:13;7.17;;;5.70;;
12892;SDS011;6514;48.606;9.222;2022-08-21T04:22:40;6.30;;;5.70;;
12892;SDS011;6514;48.606;9.222;2022-08-21T04:25:07;6.27;;;5.33;;
12892;SDS011;6514;48.606;9.222;2022-08-21T04:27:34;5.90;;;5.40;;
12892;SDS011;6514;48.606;9.222;2022-08-21T04:30:02;6.27;;;5.17;;
12892;SDS011;6514;48.606;9.222;2022-08-21T04:32:31;5.93;;;5.43;;
12892;SDS011;6514;48.606;9.222;2022-08-21T04:35:00;6.83;;;6.13;;
12892;SDS011;6514;48.606;9.222;2022-08-21T04:37:29;5.90;;;5.40;;
12892;SDS011;6514;48.606;9.222;2022-08-21T04:39:56;5.63;;;5.23;;
12892;SDS011;6514;48.606;9.222;2022-08-21T04:42:23;5.37;;;4.97;;
12892;SDS011;6514;48.606;9.222;2022-08-21T04:44:51;8.00;;;5.10;;
12892;SDS011;6514;48.606;9.222;2022-08-21T04:47:18;6.23;;;5.63;;
12892;SDS011;6514;48.606;9.222;2022-08-21T04:49:46;6.00;;;5.50;;
12892;SDS011;6514;48.606;9.222;2022-08-21T04:52:15;5.53;;;5.03;;
12892;SDS011;6514;48.606;9.222;2022-08-21T04:54:45;5.93;;;5.43;;
12892;SDS011;6514;48.606;9.222;2022-08-21T04:57:14;7.33;;;5.93;;
12892;SDS011;6514;48.606;9.222;2022-08-21T04:59:43;5.97;;;5.40;;
12892;SDS011;6514;48.606;9.222;2022-08-21T05:02:12;6.00;;;5.40;;
12892;SDS011;6514;48.606;9.222;2022-08-21T05:04:41;5.87;;;5.30;;
12892;SDS011;6514;48.606;9.222;2022-08-21T05:07:14;5.80;;;5.20;;
12892;SDS011;6514;48.606;9.222;2022-08-21T05:09:43;5.73;;;5.23;;
12892;SDS011;6514;48.606;9.222;2022-08-21T05:12:10;6.17;;;5.67;;
12892;SDS011;6514;48.606;9.222;2022-08-21T05:14:37;7.20;;;6.50;;
12892;SDS011;6514;48.606;9.222;2022-08-21T05:17:04;6.70;;;5.97;;
12892;SDS011;6514;48.606;9.222;2022-08-21T05:19:31;6.43;;;5.93;;
12892;SDS011;6514;48.606;9.222;2022-08-21T05:21:58;7.07;;;6.37;;
12892;SDS011;6514;48.606;9.222;2022-08-21T05:24:27;5.80;;;5.30;;
12892;SDS011;6514;48.606;9.222;2022-08-21T05:26:54;6.63;;;5.30;;
12892;SDS011;6514;48.606;9.222;2022-08-21T05:29:21;5.80;;;5.27;;
12892;SDS011;6514;48.606;9.222;2022-08-21T05:31:48;5.93;;;5.43;;
12892;SDS011;6514;48.606;9.222;2022-08-21T05:34:17;5.73;;;5.10;;
12892;SDS011;6514;48.606;9.222;2022-08-21T05:36:45;5.10;;;4.60;;
12892;SDS011;6514;48.606;9.222;2022-08-21T05:39:12;5.57;;;4.97;;
12892;SDS011;6514;48.606;9.222;2022-08-21T05:41:41;5.17;;;4.70;;
12892;SDS011;6514;48.606;9.222;2022-08-21T05:44:08;5.50;;;5.00;;
12892;SDS011;6514;48.606;9.222;2022-08-21T05:46:35;5.93;;;4.87;;
12892;SDS011;6514;48.606;9.222;2022-08-21T05:49:02;5.30;;;4.80;;
12892;SDS011;6514;48.606;9.222;2022-08-21T05:51:29;6.17;;;5.00;;
12892;SDS011;6514;48.606;9.222;2022-08-21T05:53:56;4.67;;;4.30;;
12892;SDS011;6514;48.606;9.222;2022-08-21T05:56:23;5.07;;;4.50;;
12892;SDS011;6514;48.606;9.222;2022-08-21T05:58:52;4.60;;;4.30;;
12892;SDS011;6514;48.606;9.222;2022-08-21T06:01:19;4.70;;;4.40;;
12892;SDS011;6514;48.606;9.222;2022-08-21T06:03:46;4.60;;;4.20;;
12892;SDS011;6514;48.606;9.222;2022-08-21T06:06:13;6.93;;;4.37;;
12892;SDS011;6514;48.606;9.222;2022-08-21T06:08:40;4.80;;;4.30;;
12892;SDS011;6514;48.606;9.222;2022-08-21T06:11:07;5.00;;;4.03;;
12892;SDS011;6514;48.606;9.222;2022-08-21T06:13:36;4.40;;;4.00;;
12892;SDS011;6514;48.606;9.222;2022-08-21T06:16:06;5.03;;;3.50;;
12892;SDS011;6514;48.606;9.222;2022-08-21T06:18:35;3.90;;;3.60;;
12892;SDS011;6514;48.606;9.222;2022-08-21T06:21:03;5.13;;;3.43;;
12892;SDS011;6514;48.606;9.222;2022-08-21T06:23:31;4.97;;;3.40;;
12892;SDS011;6514;48.606;9.222;2022-08-21T06:25:59;3.60;;;3.30;;
12892;SDS011;6514;48.606;9.222;2022-08-21T06:28:26;3.10;;;2.80;;
12892;SDS011;6514;48.606;9.222;2022-08-21T06:30:53;3.13;;;2.50;;
12892;SDS011;6514;48.606;9.222;2022-08-21T06:33:21;2.87;;;2.67;;
12892;SDS011;6514;48.606;9.222;2022-08-21T06:35:48;4.83;;;3.03;;
12892;SDS011;6514;48.606;9.222;2022-08-21T06:38:15;2.80;;;2.60;;
12892;SDS011;6514;48.606;9.222;2022-08-21T06:40:43;3.90;;;2.20;;
12892;SDS011;6514;48.606;9.222;2022-08-21T06:43:11;2.40;;;2.20;;
12892;SDS011;6514;48.606;9.222;2022-08-21T06:45:39;3.70;;;2.00;;
12892;SDS011;6514;48.606;9.222;2022-08-21T06:48:06;1.97;;;1.80;;
12892;SDS011;6514;48.606;9.222;2022-08-21T06:50:35;2.97;;;2.40;;
12892;SDS011;6514;48.606;9.222;2022-08-21T06:53:02;2.37;;;2.10;;
12892;SDS011;6514;48.606;9.222;2022-08-21T06:55:31;4.33;;;2.20;;
12892;SDS011;6514;48.606;9.222;2022-08-21T06:57:58;2.87;;;2.27;;
12892;SDS011;6514;48.606;9.222;2022-08-21T07:00:26;2.97;;;2.20;;
12892;SDS011;6514;48.606;9.222;2022-08-21T07:02:53;2.70;;;2.50;;
12892;SDS011;6514;48.606;9.222;2022-08-21T07:05:20;2.67;;;1.97;;
12892;SDS011;6514;48.606;9.222;2022-08-21T07:07:49;4.13;;;2.00;;
12892;SDS011;6514;48.606;9.222;2022-08-21T07:10:16;3.17;;;2.20;;
12892;SDS011;6514;48.606;9.222;2022-08-21T07:12:43;3.67;;;1.80;;
12892;SDS011;6514;48.606;9.222;2022-08-21T07:15:10;2.73;;;1.90;;
12892;SDS011;6514;48.606;9.222;2022-08-21T07:17:37;3.33;;;1.90;;
12892;SDS011;6514;48.606;9.222;2022-08-21T07:20:04;4.23;;;1.90;;
12892;SDS011;6514;48.606;9.222;2022-08-21T07:22:32;4.70;;;2.03;;
12892;SDS011;6514;48.606;9.222;2022-08-21T07:25:03;2.33;;;2.10;;
12892;SDS011;6514;48.606;9.222;2022-08-21T07:27:31;3.07;;;2.03;;
12892;SDS011;6514;48.606;9.222;2022-08-21T07:29:58;2.00;;;1.80;;
12892;SDS011;6514;48.606;9.222;2022-08-21T07:32:25;4.37;;;2.23;;
12892;SDS011;6514;48.606;9.222;2022-08-21T07:34:52;3.20;;;1.87;;
12892;SDS011;6514;48.606;9.222;2022-08-21T07:37:19;3.63;;;1.90;;
12892;SDS011;6514;48.606;9.222;2022-08-21T07:39:46;2.70;;;1.97;;
12892;SDS011;6514;48.606;9.222;2022-08-21T07:42:16;3.00;;;2.30;;
12892;SDS011;6514;48.606;9.222;2022-08-21T07:44:43;3.23;;;1.70;;
12892;SDS011;6514;48.606;9.222;2022-08-21T07:47:10;2.77;;;2.10;;
12892;SDS011;6514;48.606;9.222;2022-08-21T07:49:37;2.77;;;2.37;;
12892;SDS011;6514;48.606;9.222;2022-08-21T07:52:04;4.50;;;2.30;;
12892;SDS011;6514;48.606;9.222;2022-08-21T07:54:31;4.30;;;2.53;;
12892;SDS011;6514;48.606;9.222;2022-08-21T07:56:58;2.77;;;2.23;;
12892;SDS011;6514;48.606;9.222;2022-08-21T07:59:26;6.60;;;2.70;;
12892;SDS011;6514;48.606;9.222;2022-08-21T08:01:53;2.90;;;2.33;;
12892;SDS011;6514;48.606;9.222;2022-08-21T08:04:21;3.43;;;2.60;;
12892;SDS011;6514;48.606;9.222;2022-08-21T08:06:48;3.10;;;2.50;;
12892;SDS011;6514;48.606;9.222;2022-08-21T08:09:15;4.07;;;2.77;;
12892;SDS011;6514;48.606;9.222;2022-08-21T08:11:42;5.27;;;2.60;;
12892;SDS011;6514;48.606;9.222;2022-08-21T08:14:09;4.53;;;2.70;;
12892;SDS011;6514;48.606;9.222;2022-08-21T08:16:38;7.27;;;2.50;;
12892;SDS011;6514;48.606;9.222;2022-08-21T08:19:05;10.50;;;2.70;;
12892;SDS011;6514;48.606;9.222;2022-08-21T08:21:32;3.23;;;2.57;;
12892;SDS011;6514;48.606;9.222;2022-08-21T08:23:59;4.53;;;2.90;;
12892;SDS011;6514;48.606;9.222;2022-08-21T08:26:26;4.13;;;2.77;;
12892;SDS011;6514;48.606;9.222;2022-08-21T08:28:53;4.57;;;2.33;;
12892;SDS011;6514;48.606;9.222;2022-08-21T08:31:20;4.40;;;2.70;;
12892;SDS011;6514;48.606;9.222;2022-08-21T08:33:49;3.33;;;2.80;;
12892;SDS011;6514;48.606;9.222;2022-08-21T08:36:17;4.27;;;2.23;;
12892;SDS011;6514;48.606;9.222;2022-08-21T08:38:45;6.13;;;2.53;;
12892;SDS011;6514;48.606;9.222;2022-08-21T08:41:14;5.67;;;2.80;;
12892;SDS011;6514;48.606;9.222;2022-08-21T08:43:47;4.20;;;2.53;;
12892;SDS011;6514;48.606;9.222;2022-08-21T08:46:17;4.97;;;3.20;;
12892;SDS011;6514;48.606;9.222;2022-08-21T08:48:48;7.47;;;6.87;;
12892;SDS011;6514;48.606;9.222;2022-08-21T08:51:22;6.03;;;3.07;;
12892;SDS011;6514;48.606;9.222;2022-08-21T08:53:54;4.87;;;2.80;;
12892;SDS011;6514;48.606;9.222;2022-08-21T08:56:27;5.50;;;2.60;;
12892;SDS011;6514;48.606;9.222;2022-08-21T08:58:56;4.50;;;2.80;;
12892;SDS011;6514;48.606;9.222;2022-08-21T09:01:27;4.73;;;2.47;;
12892;SDS011;6514;48.606;9.222;2022-08-21T09:03:56;4.47;;;2.50;;
12892;SDS011;6514;48.606;9.222;2022-08-21T09:06:37;3.77;;;2.70;;
12892;SDS011;6514;48.606;9.222;2022-08-21T09:09:16;3.17;;;2.30;;
12892;SDS011;6514;48.606;9.222;2022-08-21T09:11:51;5.40;;;2.87;;
12892;SDS011;6514;48.606;9.222;2022-08-21T09:14:27;3.37;;;2.30;;
12892;SDS011;6514;48.606;9.222;2022-08-21T09:17:12;5.13;;;2.77;;
12892;SDS011;6514;48.606;9.222;2022-08-21T09:19:50;7.83;;;2.60;;
12892;SDS011;6514;48.606;9.222;2022-08-21T09:22:30;4.97;;;2.67;;
12892;SDS011;6514;48.606;9.222;2022-08-21T09:25:12;5.47;;;2.50;;
12892;SDS011;6514;48.606;9.222;2022-08-21T09:27:44;7.30;;;2.40;;
12892;SDS011;6514;48.606;9.222;2022-08-21T09:30:12;5.97;;;2.67;;
12892;SDS011;6514;48.606;9.222;2022-08-21T09:32:39;3.37;;;2.70;;
12892;SDS011;6514;48.606;9.222;2022-08-21T09:35:07;5.30;;;2.70;;
12892;SDS011;6514;48.606;9.222;2022-08-21T09:37:47;5.50;;;2.80;;
12892;SDS011;6514;48.606;9.222;2022-08-21T09:43:02;4.60;;;2.80;;
12892;SDS011;6514;48.606;9.222;2022-08-21T09:45:31;3.90;;;2.43;;
12892;SDS011;6514;48.606;9.222;2022-08-21T09:48:10;4.03;;;2.70;;
12892;SDS011;6514;48.606;9.222;2022-08-21T09:50:38;7.83;;;2.57;;
12892;SDS011;6514;48.606;9.222;2022-08-21T09:53:16;5.77;;;3.50;;
12892;SDS011;6514;48.606;9.222;2022-08-21T09:55:49;4.53;;;2.77;;
12892;SDS011;6514;48.606;9.222;2022-08-21T09:58:36;5.87;;;2.90;;
12892;SDS011;6514;48.606;9.222;2022-08-21T10:01:05;4.83;;;3.17;;
12892;SDS011;6514;48.606;9.222;2022-08-21T10:03:32;7.07;;;2.67;;
12892;SDS011;6514;48.606;9.222;2022-08-21T10:06:02;3.70;;;2.37;;
12892;SDS011;6514;48.606;9.222;2022-08-21T10:08:35;5.10;;;2.90;;
12892;SDS011;6514;48.606;9.222;2022-08-21T10:11:07;5.63;;;2.93;;
12892;SDS011;6514;48.606;9.222;2022-08-21T10:13:41;5.77;;;2.87;;
12892;SDS011;6514;48.606;9.222;2022-08-21T10:16:20;6.03;;;2.73;;
12892;SDS011;6514;48.606;9.222;2022-08-21T10:18:56;4.70;;;3.20;;
12892;SDS011;6514;48.606;9.222;2022-08-21T10:21:36;5.27;;;2.97;;
12892;SDS011;6514;48.606;9.222;2022-08-21T10:24:12;4.40;;;3.03;;
12892;SDS011;6514;48.606;9.222;2022-08-21T10:26:54;4.83;;;2.70;;
12892;SDS011;6514;48.606;9.222;2022-08-21T10:29:37;8.40;;;3.00;;
12892;SDS011;6514;48.606;9.222;2022-08-21T10:32:13;5.57;;;2.73;;
12892;SDS011;6514;48.606;9.222;2022-08-21T10:34:51;5.37;;;3.23;;
12892;SDS011;6514;48.606;9.222;2022-08-21T10:37:26;5.37;;;3.00;;
12892;SDS011;6514;48.606;9.222;2022-08-21T10:40:10;4.93;;;2.70;;
12892;SDS011;6514;48.606;9.222;2022-08-21T10:42:45;5.53;;;3.00;;
12892;SDS011;6514;48.606;9.222;2022-08-21T10:45:22;4.57;;;2.70;;
12892;SDS011;6514;48.606;9.222;2022-08-21T10:48:00;6.13;;;2.83;;
12892;SDS011;6514;48.606;9.222;2022-08-21T10:50:30;5.50;;;2.50;;
12892;SDS011;6514;48.606;9.222;2022-08-21T10:53:01;3.60;;;2.50;;
12892;SDS011;6514;48.606;9.222;2022-08-21T10:55:50;5.23;;;3.00;;
12892;SDS011;6514;48.606;9.222;2022-08-21T10:58:22;5.33;;;2.30;;
12892;SDS011;6514;48.606;9.222;2022-08-21T11:00:55;3.57;;;2.40;;
12892;SDS011;6514;48.606;9.222;2022-08-21T11:03:25;3.33;;;2.07;;
12892;SDS011;6514;48.606;9.222;2022-08-21T11:06:02;5.00;;;2.80;;
12892;SDS011;6514;48.606;9.222;2022-08-21T11:08:35;4.43;;;2.33;;
12892;SDS011;6514;48.606;9.222;2022-08-21T11:11:08;4.97;;;2.40;;
12892;SDS011;6514;48.606;9.222;2022-08-21T11:13:40;3.50;;;2.10;;
12892;SDS011;6514;48.606;9.222;2022-08-21T11:16:12;4.30;;;2.50;;
12892;SDS011;6514;48.606;9.222;2022-08-21T11:18:46;3.77;;;2.10;;
12892;SDS011;6514;48.606;9.222;2022-08-21T11:21:32;4.37;;;2.30;;
12892;SDS011;6514;48.606;9.222;2022-08-21T11:24:05;2.83;;;2.23;;
12892;SDS011;6514;48.606;9.222;2022-08-21T11:26:44;5.43;;;2.20;;
12892;SDS011;6514;48.606;9.222;2022-08-21T11:29:16;4.60;;;2.40;;
12892;SDS011;6514;48.606;9.222;2022-08-21T11:31:51;4.37;;;2.27;;
12892;SDS011;6514;48.606;9.222;2022-08-21T11:34:28;3.07;;;2.20;;
12892;SDS011;6514;48.606;9.222;2022-08-21T11:37:08;5.00;;;2.80;;
12892;SDS011;6514;48.606;9.222;2022-08-21T11:39:45;3.30;;;2.07;;
12892;SDS011;6514;48.606;9.222;2022-08-21T11:42:23;4.27;;;2.23;;
12892;SDS011;6514;48.606;9.222;2022-08-21T11:44:59;5.37;;;2.10;;
12892;SDS011;6514;48.606;9.222;2022-08-21T11:47:39;3.73;;;2.30;;
12892;SDS011;6514;48.606;9.222;2022-08-21T11:50:16;3.13;;;2.33;;
12892;SDS011;6514;48.606;9.222;2022-08-21T11:52:48;5.63;;;1.90;;
12892;SDS011;6514;48.606;9.222;2022-08-21T11:55:23;2.77;;;1.70;;
12892;SDS011;6514;48.606;9.222;2022-08-21T11:57:58;4.53;;;2.10;;
12892;SDS011;6514;48.606;9.222;2022-08-21T12:00:31;2.50;;;2.00;;
12892;SDS011;6514;48.606;9.222;2022-08-21T12:03:06;3.80;;;2.38;;
12892;SDS011;6514;48.606;9.222;2022-08-21T12:05:36;5.80;;;2.47;;
12892;SDS011;6514;48.606;9.222;2022-08-21T12:08:09;4.00;;;2.30;;
12892;SDS011;6514;48.606;9.222;2022-08-21T12:10:39;3.53;;;1.97;;
12892;SDS011;6514;48.606;9.222;2022-08-21T12:13:22;4.50;;;2.67;;
12892;SDS011;6514;48.606;9.222;2022-08-21T12:15:51;13.40;;;2.13;;
12892;SDS011;6514;48.606;9.222;2022-08-21T12:18:20;3.80;;;1.90;;
12892;SDS011;6514;48.606;9.222;2022-08-21T12:21:02;3.67;;;1.83;;
12892;SDS011;6514;48.606;9.222;2022-08-21T12:23:44;4.40;;;2.00;;
12892;SDS011;6514;48.606;9.222;2022-08-21T12:26:24;4.50;;;2.17;;
12892;SDS011;6514;48.606;9.222;2022-08-21T12:31:52;3.03;;;2.13;;
12892;SDS011;6514;48.606;9.222;2022-08-21T12:34:23;3.40;;;1.90;;
12892;SDS011;6514;48.606;9.222;2022-08-21T12:36:57;2.63;;;2.03;;
12892;SDS011;6514;48.606;9.222;2022-08-21T12:39:27;2.63;;;1.73;;
12892;SDS011;6514;48.606;9.222;2022-08-21T12:41:58;2.83;;;1.90;;
12892;SDS011;6514;48.606;9.222;2022-08-21T12:44:30;2.60;;;1.90;;
12892;SDS011;6514;48.606;9.222;2022-08-21T12:47:03;4.10;;;1.90;;
12892;SDS011;6514;48.606;9.222;2022-08-21T12:49:32;3.40;;;2.20;;
12892;SDS011;6514;48.606;9.222;2022-08-21T12:52:03;2.97;;;1.83;;
12892;SDS011;6514;48.606;9.222;2022-08-21T12:54:37;5.10;;;2.00;;
12892;SDS011;6514;48.606;9.222;2022-08-21T12:57:07;2.57;;;2.00;;
12892;SDS011;6514;48.606;9.222;2022-08-21T12:59:38;2.80;;;1.80;;
12892;SDS011;6514;48.606;9.222;2022-08-21T13:02:09;3.23;;;2.07;;
12892;SDS011;6514;48.606;9.222;2022-08-21T13:04:41;3.10;;;2.00;;
12892;SDS011;6514;48.606;9.222;2022-08-21T13:07:10;2.93;;;1.70;;
12892;SDS011;6514;48.606;9.222;2022-08-21T13:09:44;4.23;;;1.90;;
12892;SDS011;6514;48.606;9.222;2022-08-21T13:12:14;2.47;;;1.60;;
12892;SDS011;6514;48.606;9.222;2022-08-21T13:14:45;3.23;;;2.00;;
12892;SDS011;6514;48.606;9.222;2022-08-21T13:17:13;4.83;;;2.00;;
12892;SDS011;6514;48.606;9.222;2022-08-21T13:19:42;3.67;;;1.93;;
12892;SDS011;6514;48.606;9.222;2022-08-21T13:22:19;4.43;;;2.03;;
12892;SDS011;6514;48.606;9.222;2022-08-21T13:24:46;4.47;;;2.00;;
12892;SDS011;6514;48.606;9.222;2022-08-21T13:27:18;3.20;;;1.93;;
12892;SDS011;6514;48.606;9.222;2022-08-21T13:29:59;2.17;;;1.80;;
12892;SDS011;6514;48.606;9.222;2022-08-21T13:32:28;3.30;;;1.83;;
12892;SDS011;6514;48.606;9.222;2022-08-21T13:34:58;3.23;;;2.10;;
12892;SDS011;6514;48.606;9.222;2022-08-21T13:37:33;3.50;;;1.90;;
12892;SDS011;6514;48.606;9.222;2022-08-21T13:40:01;2.63;;;1.73;;
12892;SDS011;6514;48.606;9.222;2022-08-21T13:42:32;2.38;;;1.98;;
12892;SDS011;6514;48.606;9.222;2022-08-21T13:45:01;2.08;;;1.90;;
12892;SDS011;6514;48.606;9.222;2022-08-21T13:47:27;3.42;;;2.20;;
12892;SDS011;6514;48.606;9.222;2022-08-21T13:49:54;3.83;;;1.87;;
12892;SDS011;6514;48.606;9.222;2022-08-21T13:52:23;2.20;;;1.83;;
12892;SDS011;6514;48.606;9.222;2022-08-21T13:54:53;2.57;;;1.80;;
12892;SDS011;6514;48.606;9.222;2022-08-21T13:57:25;2.90;;;2.00;;
12892;SDS011;6514;48.606;9.222;2022-08-21T14:02:49;2.43;;;1.60;;
12892;SDS011;6514;48.606;9.222;2022-08-21T14:05:19;3.23;;;2.03;;
12892;SDS011;6514;48.606;9.222;2022-08-21T14:07:51;4.33;;;1.80;;
12892;SDS011;6514;48.606;9.222;2022-08-21T14:10:26;3.77;;;2.13;;
12892;SDS011;6514;48.606;9.222;2022-08-21T14:12:57;3.53;;;1.83;;
12892;SDS011;6514;48.606;9.222;2022-08-21T14:15:28;3.50;;;2.00;;
12892;SDS011;6514;48.606;9.222;2022-08-21T14:18:07;2.90;;;1.90;;
12892;SDS011;6514;48.606;9.222;2022-08-21T14:20:39;2.23;;;1.77;;
12892;SDS011;6514;48.606;9.222;2022-08-21T14:23:06;3.57;;;2.10;;
12892;SDS011;6514;48.606;9.222;2022-08-21T14:25:37;4.50;;;2.30;;
12892;SDS011;6514;48.606;9.222;2022-08-21T14:28:10;3.87;;;1.97;;
12892;SDS011;6514;48.606;9.222;2022-08-21T14:30:42;4.30;;;1.80;;
12892;SDS011;6514;48.606;9.222;2022-08-21T14:33:12;2.67;;;1.83;;
12892;SDS011;6514;48.606;9.222;2022-08-21T14:35:51;1.83;;;1.60;;
12892;SDS011;6514;48.606;9.222;2022-08-21T14:38:19;3.73;;;2.00;;
12892;SDS011;6514;48.606;9.222;2022-08-21T14:40:48;3.87;;;1.80;;
12892;SDS011;6514;48.606;9.222;2022-08-21T14:43:17;3.00;;;2.00;;
12892;SDS011;6514;48.606;9.222;2022-08-21T14:45:45;2.80;;;2.20;;
12892;SDS011;6514;48.606;9.222;2022-08-21T14:48:14;3.33;;;2.10;;
12892;SDS011;6514;48.606;9.222;2022-08-21T14:50:41;3.20;;;1.83;;
12892;SDS011;6514;48.606;9.222;2022-08-21T14:53:08;3.87;;;2.40;;
12892;SDS011;6514;48.606;9.222;2022-08-21T14:55:36;3.70;;;2.20;;
12892;SDS011;6514;48.606;9.222;2022-08-21T14:58:18;2.87;;;2.00;;
12892;SDS011;6514;48.606;9.222;2022-08-21T15:00:45;3.17;;;2.00;;
12892;SDS011;6514;48.606;9.222;2022-08-21T15:03:14;4.23;;;2.13;;
12892;SDS011;6514;48.606;9.222;2022-08-21T15:05:41;5.23;;;2.53;;
12892;SDS011;6514;48.606;9.222;2022-08-21T15:08:08;4.33;;;2.17;;
12892;SDS011;6514;48.606;9.222;2022-08-21T15:10:35;3.83;;;2.10;;
12892;SDS011;6514;48.606;9.222;2022-08-21T15:13:02;3.70;;;2.03;;
12892;SDS011;6514;48.606;9.222;2022-08-21T15:15:30;3.43;;;2.20;;
12892;SDS011;6514;48.606;9.222;2022-08-21T15:18:00;2.70;;;1.93;;
12892;SDS011;6514;48.606;9.222;2022-08-21T15:20:28;3.93;;;2.23;;
12892;SDS011;6514;48.606;9.222;2022-08-21T15:22:55;4.77;;;2.23;;
12892;SDS011;6514;48.606;9.222;2022-08-21T15:25:22;4.37;;;2.40;;